Pearl River, Louisiana
Current Conditions -  °F | °C
As of 6:53 AM on Saturday 20 Dec 2014 (Local Time) from KASD Reporting Station
Overcast Overcast  
Wind Chill: 43°   Ceiling: 600
Heat Index: 48°   Visibility: 10mi
Dew Point: 45°   Wind: 12mph
Humidity: 89%   Direction: 20°NNE
Pressure: 30.11"   Gusts: NA
Location:  30.38°N, 89.75°W
Report Text: KASD 201253Z AUTO 02010KT 10SM BKN006 OVC026 09/07 A3011 RMK AO2 SLP195 T00890072
Loading
Personal Weather Stations






























Interactive Weather Map New forecast layout! Learn more

10-Day Weather Forecast

Advertisements
Track Severe Weather on mobile